createdAt,value
2017-11-20T00:00:01.285Z,13.90
2017-11-20T00:02:28.872Z,10.85
2017-11-20T00:04:57.187Z,8.82
2017-11-20T00:07:25.454Z,5.03
2017-11-20T00:09:54.836Z,9.52
2017-11-20T00:12:23.631Z,12.55
2017-11-20T00:14:52.369Z,5.87
2017-11-20T00:17:20.815Z,18.65
2017-11-20T00:19:48.386Z,8.38
2017-11-20T00:22:15.931Z,6.95
2017-11-20T00:24:43.554Z,6.07
2017-11-20T00:27:13.333Z,8.05
2017-11-20T00:29:40.928Z,8.95
2017-11-20T00:32:09.284Z,8.25
2017-11-20T00:34:43.764Z,6.45
2017-11-20T00:37:13.401Z,5.93
2017-11-20T00:39:40.983Z,4.10
2017-11-20T00:42:08.567Z,4.20
2017-11-20T00:44:36.828Z,9.68
2017-11-20T00:47:05.135Z,6.70
2017-11-20T00:49:32.727Z,12.13
2017-11-20T00:52:00.743Z,12.77
2017-11-20T00:54:29.062Z,8.05
2017-11-20T00:56:56.619Z,11.85
2017-11-20T00:59:24.791Z,9.88
2017-11-20T01:01:52.390Z,10.80
2017-11-20T01:04:22.688Z,3.65
2017-11-20T01:06:50.270Z,6.65
2017-11-20T01:09:19.786Z,4.80
2017-11-20T01:11:47.380Z,4.47
2017-11-20T01:14:19.136Z,4.05
2017-11-20T01:16:48.707Z,8.52
2017-11-20T01:19:19.305Z,6.05
2017-11-20T01:21:46.923Z,7.28
2017-11-20T01:24:15.388Z,9.70
2017-11-20T01:26:42.974Z,5.78
2017-11-20T01:29:11.319Z,4.97
2017-11-20T01:31:40.760Z,11.82
2017-11-20T01:34:08.421Z,7.05
2017-11-20T01:36:36.775Z,5.85
2017-11-20T01:39:05.415Z,9.90
2017-11-20T01:41:33.008Z,8.27
2017-11-20T01:44:06.323Z,7.60
2017-11-20T01:46:35.361Z,14.75
2017-11-20T01:49:04.109Z,3.67
2017-11-20T01:51:31.719Z,5.93
2017-11-20T01:53:59.304Z,14.15
2017-11-20T01:56:26.903Z,7.90
2017-11-20T01:58:54.489Z,9.13
2017-11-20T02:01:22.108Z,7.95
2017-11-20T02:03:51.377Z,4.97
2017-11-20T02:06:18.968Z,5.45
2017-11-20T02:08:46.610Z,15.50
2017-11-20T02:11:14.969Z,5.53
2017-11-20T02:13:42.608Z,6.05
2017-11-20T02:16:14.781Z,7.35
2017-11-20T02:18:43.505Z,3.47
2017-11-20T02:21:11.118Z,6.35
2017-11-20T02:23:38.732Z,6.15
2017-11-20T02:26:06.332Z,7.30
2017-11-20T02:28:33.858Z,4.30
2017-11-20T02:31:02.761Z,3.92
2017-11-20T02:33:30.368Z,4.30
2017-11-20T02:35:57.955Z,8.43
2017-11-20T02:38:25.573Z,4.40
2017-11-20T02:40:56.851Z,5.80
2017-11-20T02:43:29.733Z,5.95
2017-11-20T02:45:57.353Z,5.00
2017-11-20T02:48:25.279Z,8.88
2017-11-20T02:50:52.858Z,10.02
2017-11-20T02:53:22.125Z,5.37
2017-11-20T02:55:49.719Z,5.65
2017-11-20T02:58:18.232Z,6.18
2017-11-20T03:00:48.343Z,8.57
2017-11-20T03:03:16.249Z,7.53
2017-11-20T03:05:43.805Z,11.80
2017-11-20T03:08:11.393Z,10.18
2017-11-20T03:10:38.948Z,4.95
2017-11-20T03:13:06.528Z,7.07
2017-11-20T03:15:34.091Z,6.12
2017-11-20T03:18:02.456Z,2.92
2017-11-20T03:20:32.703Z,7.00
2017-11-20T03:23:01.134Z,4.05
2017-11-20T03:25:30.317Z,3.75
2017-11-20T03:27:57.905Z,6.05
2017-11-20T03:30:25.515Z,5.82
2017-11-20T03:32:56.348Z,5.80
2017-11-20T03:35:26.637Z,9.00
2017-11-20T03:37:55.857Z,6.55
2017-11-20T03:40:24.227Z,3.85
2017-11-20T03:42:51.849Z,6.00
2017-11-20T03:45:19.414Z,5.78
2017-11-20T03:47:49.408Z,5.30
2017-11-20T03:50:18.992Z,13.25
2017-11-20T03:52:47.360Z,5.18
2017-11-20T03:55:14.951Z,8.75
2017-11-20T03:57:42.584Z,4.22
2017-11-20T04:00:13.553Z,10.15
2017-11-20T04:02:41.784Z,6.28
2017-11-20T04:05:09.334Z,7.10
2017-11-20T04:07:39.517Z,6.12
2017-11-20T04:10:07.063Z,5.82
2017-11-20T04:12:34.638Z,12.77
2017-11-20T04:15:04.522Z,9.15
2017-11-20T04:17:32.065Z,5.47
2017-11-20T04:20:02.147Z,14.48
2017-11-20T04:22:35.236Z,5.53
2017-11-20T04:25:05.949Z,9.48
2017-11-20T04:27:35.303Z,12.73
2017-11-20T04:30:04.798Z,7.00
2017-11-20T04:32:32.427Z,6.05
2017-11-20T04:35:02.552Z,6.60
2017-11-20T04:37:30.140Z,5.32
2017-11-20T04:39:57.742Z,6.15
2017-11-20T04:42:28.797Z,5.10
2017-11-20T04:44:56.978Z,7.35
2017-11-20T04:47:26.386Z,6.10
2017-11-20T04:49:57.652Z,10.23
2017-11-20T04:52:26.069Z,7.07
2017-11-20T04:54:55.577Z,9.45
2017-11-20T04:57:27.865Z,11.75
2017-11-20T04:59:58.010Z,5.15
2017-11-20T05:02:28.680Z,10.98
2017-11-20T05:05:03.576Z,7.25
2017-11-20T05:07:32.950Z,10.75
2017-11-20T05:10:01.114Z,8.02
2017-11-20T05:12:35.921Z,6.55
2017-11-20T05:15:03.489Z,9.18
2017-11-20T05:17:35.388Z,10.82
2017-11-20T05:20:05.994Z,9.95
2017-11-20T05:22:34.573Z,10.63
2017-11-20T05:25:02.936Z,9.55
2017-11-20T05:27:30.944Z,7.60
2017-11-20T05:30:04.372Z,7.82
2017-11-20T05:32:38.836Z,6.50
2017-11-20T05:35:08.761Z,12.20
2017-11-20T05:37:37.489Z,5.37
2017-11-20T05:40:07.283Z,12.70
2017-11-20T05:42:35.627Z,7.25
2017-11-20T05:45:03.231Z,7.32
2017-11-20T05:47:30.835Z,4.35
2017-11-20T05:50:01.156Z,6.95
2017-11-20T05:52:33.005Z,11.57
2017-11-20T05:55:00.566Z,7.00
2017-11-20T05:57:31.353Z,10.65
2017-11-20T05:59:59.680Z,5.87
2017-11-20T06:02:27.221Z,14.48
2017-11-20T06:04:56.644Z,9.20
2017-11-20T06:07:32.795Z,8.75
2017-11-20T06:10:01.168Z,6.37
2017-11-20T06:12:32.590Z,6.28
2017-11-20T06:15:01.485Z,5.15
2017-11-20T06:17:30.246Z,12.40
2017-11-20T06:19:58.899Z,6.70
2017-11-20T06:22:26.517Z,7.50
2017-11-20T06:24:54.099Z,11.32
2017-11-20T06:27:23.096Z,7.82
2017-11-20T06:29:51.912Z,9.85
2017-11-20T06:32:21.557Z,15.27
2017-11-20T06:34:49.123Z,9.88
2017-11-20T06:37:26.125Z,6.85
2017-11-20T06:39:54.960Z,14.13
2017-11-20T06:42:26.069Z,15.48
2017-11-20T06:44:54.990Z,9.70
2017-11-20T06:47:23.726Z,13.45
2017-11-20T06:49:52.215Z,15.93
2017-11-20T06:52:23.886Z,13.52
2017-11-20T06:54:51.459Z,12.63
2017-11-20T06:57:20.398Z,21.10
2017-11-20T06:59:47.966Z,9.38
2017-11-20T07:02:16.628Z,21.73
2017-11-20T07:04:44.977Z,10.38
2017-11-20T07:07:13.087Z,18.92
2017-11-20T07:09:41.422Z,9.13
2017-11-20T07:12:12.425Z,17.40
2017-11-20T07:14:41.254Z,14.40
2017-11-20T07:17:16.102Z,11.50
2017-11-20T07:19:47.477Z,10.93
2017-11-20T07:22:16.187Z,10.25
2017-11-20T07:24:44.840Z,16.92
2017-11-20T07:27:25.220Z,13.30
2017-11-20T07:30:06.650Z,9.23
2017-11-20T07:32:34.695Z,10.40
2017-11-20T07:35:15.231Z,13.57
2017-11-20T07:37:56.533Z,10.48
2017-11-20T07:40:46.967Z,10.30
2017-11-20T07:43:16.354Z,12.88
2017-11-20T07:45:43.877Z,7.68
2017-11-20T07:48:13.574Z,6.00
2017-11-20T07:50:41.958Z,10.02
2017-11-20T07:53:10.273Z,5.55
2017-11-20T07:55:41.115Z,8.85
2017-11-20T07:58:09.790Z,8.60
2017-11-20T08:00:42.123Z,12.18
2017-11-20T08:03:11.437Z,11.38
2017-11-20T08:05:40.156Z,11.32
2017-11-20T08:08:07.717Z,16.83
2017-11-20T08:10:37.361Z,10.65
2017-11-20T08:13:05.994Z,16.50
2017-11-20T08:15:34.568Z,17.25
2017-11-20T08:18:02.153Z,13.85
2017-11-20T08:20:32.280Z,12.77
2017-11-20T08:23:01.073Z,5.62
2017-11-20T08:25:32.601Z,11.43
2017-11-20T08:28:01.761Z,14.20
2017-11-20T08:30:30.161Z,10.90
2017-11-20T08:32:58.497Z,9.48
2017-11-20T08:35:27.772Z,9.88
2017-11-20T08:37:59.055Z,8.48
2017-11-20T08:40:28.748Z,21.67
2017-11-20T08:42:59.549Z,25.50
2017-11-20T08:45:28.563Z,19.67
2017-11-20T08:47:57.071Z,13.30
2017-11-20T08:50:26.890Z,23.60
2017-11-20T08:53:00.324Z,17.58
2017-11-20T08:55:27.854Z,21.25
2017-11-20T08:57:59.684Z,28.05
2017-11-20T09:00:29.174Z,13.32
2017-11-20T09:02:57.705Z,34.95
2017-11-20T09:05:28.196Z,22.13
2017-11-20T09:07:57.036Z,28.30
2017-11-20T09:10:25.392Z,26.55
2017-11-20T09:12:55.770Z,15.25
2017-11-20T09:15:25.906Z,22.90
2017-11-20T09:17:57.363Z,17.92
2017-11-20T09:20:28.043Z,22.25
2017-11-20T09:22:59.070Z,17.40
2017-11-20T09:25:28.538Z,28.38
2017-11-20T09:27:59.419Z,18.00
2017-11-20T09:30:27.775Z,15.65
2017-11-20T09:32:55.583Z,21.90
2017-11-20T09:37:55.598Z,24.30
2017-11-20T09:40:23.931Z,17.50
2017-11-20T09:42:57.541Z,23.27
2017-11-20T09:45:26.636Z,24.83
2017-11-20T09:47:54.664Z,19.73
2017-11-20T09:50:26.346Z,17.65
2017-11-20T09:52:54.020Z,30.58
2017-11-20T09:55:22.739Z,12.52
2017-11-20T09:57:56.780Z,18.23
2017-11-20T10:00:25.162Z,20.23
2017-11-20T10:02:54.527Z,15.18
2017-11-20T10:05:24.459Z,16.25
2017-11-20T10:07:52.305Z,27.13
2017-11-20T10:10:20.049Z,11.43
2017-11-20T10:12:47.854Z,14.43
2017-11-20T10:15:15.658Z,19.25
2017-11-20T10:17:48.307Z,13.27
2017-11-20T10:20:21.778Z,11.07
2017-11-20T10:22:51.025Z,12.70
2017-11-20T10:27:51.582Z,10.10
2017-11-20T10:30:19.167Z,11.73
2017-11-20T10:32:48.143Z,17.58
2017-11-20T10:35:16.257Z,11.32
2017-11-20T10:37:44.072Z,14.05
2017-11-20T10:40:11.625Z,17.87
2017-11-20T10:42:39.247Z,17.90
2017-11-20T10:45:06.793Z,9.77
2017-11-20T10:47:34.441Z,21.17
2017-11-20T10:50:02.706Z,9.85
2017-11-20T10:52:30.928Z,16.25
2017-11-20T10:54:59.496Z,14.65
2017-11-20T10:57:27.080Z,14.20
2017-11-20T10:59:55.962Z,6.85
2017-11-20T11:02:23.557Z,9.18
2017-11-20T11:04:51.193Z,5.53
2017-11-20T11:07:18.869Z,4.57
2017-11-20T11:09:46.510Z,3.10
2017-11-20T11:12:14.066Z,2.62
2017-11-20T11:14:45.903Z,4.60
2017-11-20T11:17:14.945Z,3.97
2017-11-20T11:19:44.249Z,3.20
2017-11-20T11:22:12.838Z,3.50
2017-11-20T11:24:43.422Z,6.60
2017-11-20T11:27:14.087Z,6.85
2017-11-20T11:29:42.715Z,6.53
2017-11-20T11:32:13.509Z,7.90
2017-11-20T11:34:42.357Z,6.90
2017-11-20T11:37:12.961Z,4.22
2017-11-20T11:39:44.445Z,5.05
2017-11-20T11:42:16.042Z,10.85
2017-11-20T11:44:46.073Z,5.93
2017-11-20T11:47:13.650Z,9.02
2017-11-20T11:49:46.474Z,10.05
2017-11-20T11:52:14.686Z,7.10
2017-11-20T11:54:42.665Z,7.55
2017-11-20T11:57:10.486Z,10.52
2017-11-20T11:59:38.301Z,12.55
2017-11-20T12:02:11.071Z,11.68
2017-11-20T12:04:38.898Z,12.90
2017-11-20T12:07:06.592Z,11.12
2017-11-20T12:09:34.624Z,11.55
2017-11-20T12:12:06.690Z,8.00
2017-11-20T12:14:34.305Z,22.52
2017-11-20T12:17:02.219Z,30.85
2017-11-20T12:19:29.850Z,35.25
2017-11-20T12:21:57.448Z,16.90
2017-11-20T12:24:25.046Z,15.38
2017-11-20T12:26:53.738Z,5.85
2017-11-20T12:29:21.597Z,8.55
2017-11-20T12:31:49.174Z,5.22
2017-11-20T12:34:17.037Z,7.18
2017-11-20T12:36:44.900Z,8.52
2017-11-20T12:39:12.519Z,3.55
2017-11-20T12:41:41.033Z,2.83
2017-11-20T12:44:08.848Z,4.68
2017-11-20T12:46:36.450Z,3.10
2017-11-20T12:49:04.137Z,6.70
2017-11-20T12:51:31.932Z,2.90
2017-11-20T12:54:00.416Z,5.35
2017-11-20T12:56:28.815Z,3.40
2017-11-20T12:58:56.954Z,8.07
2017-11-20T13:01:25.773Z,9.52
2017-11-20T13:03:54.478Z,3.25
2017-11-20T13:06:23.014Z,4.72
2017-11-20T13:08:52.492Z,4.18
2017-11-20T13:11:21.229Z,3.50
2017-11-20T13:13:49.417Z,8.38
2017-11-20T13:16:17.869Z,3.10
2017-11-20T13:18:46.893Z,4.70
2017-11-20T13:21:16.034Z,3.05
2017-11-20T13:23:45.420Z,13.70
2017-11-20T13:26:13.685Z,2.92
2017-11-20T13:28:41.761Z,5.00
2017-11-20T13:31:10.757Z,5.15
2017-11-20T13:33:40.452Z,3.35
2017-11-20T13:36:09.183Z,2.83
2017-11-20T13:38:37.734Z,2.45
2017-11-20T13:41:06.763Z,3.62
2017-11-20T13:43:34.982Z,4.37
2017-11-20T13:46:05.980Z,2.22
2017-11-20T13:54:03.003Z,10.40
2017-11-20T14:07:54.707Z,2.12
2017-11-20T14:13:12.276Z,7.75
2017-11-20T14:15:40.839Z,3.25
2017-11-20T14:21:36.264Z,5.47
2017-11-20T14:39:03.339Z,8.52
2017-11-20T14:44:30.172Z,11.60
2017-11-20T14:47:05.140Z,7.32
2017-11-20T14:49:35.629Z,11.60
2017-11-20T14:55:11.199Z,6.20
2017-11-20T14:57:40.612Z,6.75
2017-11-20T15:00:10.658Z,4.55
2017-11-20T15:02:40.263Z,7.57
2017-11-20T15:05:10.320Z,5.47
2017-11-20T15:07:41.803Z,11.95
2017-11-20T15:10:13.292Z,30.40
2017-11-20T15:12:42.859Z,14.38
2017-11-20T15:15:13.504Z,18.83
2017-11-20T15:17:42.813Z,12.23
2017-11-20T15:20:15.162Z,14.60
2017-11-20T15:22:43.778Z,17.90
2017-11-20T15:25:14.089Z,19.15
2017-11-20T15:27:43.210Z,27.08
2017-11-20T15:30:11.992Z,18.33
2017-11-20T15:32:40.806Z,23.87
2017-11-20T15:35:09.139Z,25.20
2017-11-20T15:37:37.777Z,27.83
2017-11-20T15:40:06.610Z,28.35
2017-11-20T15:42:35.051Z,23.05
2017-11-20T15:45:03.524Z,19.35
2017-11-20T15:47:31.805Z,27.83
2017-11-20T15:50:00.234Z,27.02
2017-11-20T15:52:28.319Z,22.33
2017-11-20T15:54:59.291Z,19.05
2017-11-20T15:57:29.481Z,18.05
2017-11-20T15:59:57.982Z,21.75
2017-11-20T16:02:32.087Z,18.27
2017-11-20T16:05:01.722Z,20.65
2017-11-20T16:07:30.307Z,12.00
2017-11-20T16:09:59.138Z,29.63
2017-11-20T16:12:28.849Z,14.10
2017-11-20T16:14:58.517Z,21.15
2017-11-20T16:17:27.233Z,13.60
2017-11-20T16:19:55.483Z,16.75
2017-11-20T16:22:24.723Z,20.88
2017-11-20T16:24:53.370Z,19.52
2017-11-20T16:27:24.543Z,21.48
2017-11-20T16:29:55.194Z,30.25
2017-11-20T16:34:56.608Z,27.50
2017-11-20T16:37:25.736Z,18.42
2017-11-20T16:39:54.362Z,20.40
2017-11-20T16:42:22.768Z,14.23
2017-11-20T16:44:52.201Z,12.23
2017-11-20T16:47:20.810Z,20.52
2017-11-20T16:49:52.722Z,9.98
2017-11-20T16:52:22.635Z,11.15
2017-11-20T16:54:51.424Z,11.38
2017-11-20T16:57:33.516Z,11.55
2017-11-20T17:00:16.465Z,10.77
2017-11-20T17:02:56.774Z,10.02
2017-11-20T17:05:26.554Z,8.70
2017-11-20T17:07:55.891Z,10.80
2017-11-20T17:10:23.487Z,12.02
2017-11-20T17:12:54.866Z,10.18
2017-11-20T17:15:26.026Z,9.73
2017-11-20T17:17:57.116Z,10.93
2017-11-20T17:20:29.913Z,16.27
2017-11-20T17:22:57.632Z,28.60
2017-11-20T17:25:26.831Z,13.43
2017-11-20T17:27:59.846Z,11.93
2017-11-20T17:30:35.205Z,8.60
2017-11-20T17:33:05.794Z,13.00
2017-11-20T17:35:36.300Z,7.90
2017-11-20T17:38:10.276Z,17.02
2017-11-20T17:40:44.759Z,12.18
2017-11-20T17:43:12.384Z,9.65
2017-11-20T17:45:44.177Z,7.47
2017-11-20T17:48:13.912Z,8.82
2017-11-20T17:50:42.289Z,7.78
2017-11-20T17:53:12.685Z,8.43
2017-11-20T17:55:42.550Z,12.65
2017-11-20T17:58:10.172Z,10.52
2017-11-20T18:03:15.142Z,16.80
2017-11-20T18:05:44.910Z,13.93
2017-11-20T18:08:14.176Z,29.27
2017-11-20T18:10:41.814Z,13.13
2017-11-20T18:13:10.756Z,19.75
2017-11-20T18:15:39.002Z,15.90
2017-11-20T18:18:07.597Z,9.45
2017-11-20T18:20:36.456Z,9.30
2017-11-20T18:23:05.133Z,6.05
2017-11-20T18:25:34.061Z,5.90
2017-11-20T18:28:01.823Z,5.37
2017-11-20T18:30:30.705Z,8.85
2017-11-20T18:33:03.118Z,11.60
2017-11-20T18:35:31.953Z,8.63
2017-11-20T18:38:03.361Z,4.62
2017-11-20T18:40:33.420Z,6.35
2017-11-20T18:43:04.313Z,7.90
2017-11-20T18:45:34.574Z,15.55
2017-11-20T18:48:06.114Z,14.65
2017-11-20T18:50:33.729Z,4.53
2017-11-20T18:53:04.636Z,6.43
2017-11-20T18:55:38.913Z,6.70
2017-11-20T18:58:07.949Z,8.57
2017-11-20T19:00:47.562Z,4.93
2017-11-20T19:03:22.994Z,4.78
2017-11-20T19:06:02.514Z,5.12
2017-11-20T19:08:43.020Z,9.95
2017-11-20T19:11:11.941Z,6.45
2017-11-20T19:13:42.013Z,6.72
2017-11-20T19:16:11.478Z,6.68
2017-11-20T19:18:40.463Z,8.32
2017-11-20T19:21:09.616Z,6.75
2017-11-20T19:23:37.344Z,6.55
2017-11-20T19:26:06.261Z,6.20
2017-11-20T19:28:38.925Z,8.38
2017-11-20T19:31:11.895Z,5.25
2017-11-20T19:33:46.732Z,7.32
2017-11-20T19:36:14.366Z,6.75
2017-11-20T19:38:41.950Z,7.65
2017-11-20T19:43:46.841Z,4.70
2017-11-20T19:46:17.826Z,5.53
2017-11-20T19:48:47.106Z,15.70
2017-11-20T19:51:17.724Z,5.57
2017-11-20T19:53:46.247Z,5.03
2017-11-20T19:58:47.764Z,5.75
2017-11-20T20:01:17.983Z,5.43
2017-11-20T20:06:22.560Z,5.00
2017-11-20T20:08:51.909Z,6.68
2017-11-20T20:11:25.106Z,6.75
2017-11-20T20:13:54.714Z,6.72
2017-11-20T20:16:51.363Z,8.32
2017-11-20T20:19:21.547Z,8.27
2017-11-20T20:21:49.469Z,6.35
2017-11-20T20:24:17.045Z,5.95
2017-11-20T20:26:45.726Z,5.80
2017-11-20T20:29:16.367Z,6.70
2017-11-20T20:31:50.701Z,5.22
2017-11-20T20:34:18.338Z,5.57
2017-11-20T20:36:49.902Z,5.37
2017-11-20T20:39:18.634Z,6.85
2017-11-20T20:41:47.021Z,6.18
2017-11-20T20:44:15.353Z,8.20
2017-11-20T20:46:42.939Z,6.32
2017-11-20T20:49:10.506Z,7.68
2017-11-20T20:51:41.124Z,5.37
2017-11-20T20:54:08.962Z,6.75
2017-11-20T20:56:41.432Z,9.20
2017-11-20T20:59:09.286Z,8.65
2017-11-20T21:01:36.853Z,6.47
2017-11-20T21:04:09.342Z,5.97
2017-11-20T21:06:45.633Z,6.93
2017-11-20T21:09:14.055Z,8.10
2017-11-20T21:11:48.624Z,6.70
2017-11-20T21:14:16.844Z,8.40
2017-11-20T21:16:45.581Z,6.15
2017-11-20T21:19:14.152Z,7.65
2017-11-20T21:21:42.225Z,7.22
2017-11-20T21:24:11.642Z,6.57
2017-11-20T21:26:39.736Z,6.50
2017-11-20T21:29:07.890Z,5.95
2017-11-20T21:31:35.858Z,7.62
2017-11-20T21:36:35.896Z,8.10
2017-11-20T21:39:03.784Z,7.05
2017-11-20T21:44:24.278Z,6.90
2017-11-20T21:46:54.123Z,6.60
2017-11-20T21:49:22.638Z,9.15
2017-11-20T21:51:51.466Z,6.62
2017-11-20T21:54:19.949Z,8.00
2017-11-20T21:56:49.373Z,4.80
2017-11-20T21:59:18.714Z,6.45
2017-11-20T22:01:49.617Z,4.37
2017-11-20T22:04:18.478Z,3.95
2017-11-20T22:06:46.596Z,3.35
2017-11-20T22:09:14.382Z,6.30
2017-11-20T22:11:42.769Z,5.55
2017-11-20T22:14:10.382Z,6.30
2017-11-20T22:16:39.031Z,8.07
2017-11-20T22:19:06.663Z,8.57
2017-11-20T22:21:34.262Z,8.70
2017-11-20T22:24:02.269Z,11.12
2017-11-20T22:26:31.358Z,22.65
2017-11-20T22:28:59.605Z,13.35
2017-11-20T22:31:27.892Z,15.45
2017-11-20T22:33:56.063Z,13.15
2017-11-20T22:36:24.449Z,13.85
2017-11-20T22:38:52.466Z,13.77
2017-11-20T22:41:20.644Z,19.00
2017-11-20T22:43:48.622Z,21.98
2017-11-20T22:46:17.021Z,21.05
2017-11-20T22:48:45.606Z,16.75
2017-11-20T22:51:13.573Z,18.75
2017-11-20T22:53:41.671Z,14.70
2017-11-20T22:56:09.747Z,23.75
2017-11-20T22:58:37.406Z,16.35
2017-11-20T23:01:05.748Z,17.10
2017-11-20T23:03:33.319Z,17.23
2017-11-20T23:06:01.340Z,20.30
2017-11-20T23:08:29.664Z,19.73
2017-11-20T23:10:57.709Z,16.10
2017-11-20T23:13:25.923Z,12.93
2017-11-20T23:15:53.547Z,14.63
2017-11-20T23:18:21.892Z,10.50
2017-11-20T23:20:50.129Z,17.60
2017-11-20T23:23:17.702Z,12.37
2017-11-20T23:25:45.231Z,11.98
2017-11-20T23:28:13.433Z,15.52
2017-11-20T23:30:42.291Z,15.20
2017-11-20T23:33:10.125Z,16.92
2017-11-20T23:35:37.686Z,14.82
2017-11-20T23:38:07.208Z,14.35
2017-11-20T23:40:35.717Z,12.13
2017-11-20T23:43:03.669Z,9.75
2017-11-20T23:45:31.253Z,22.10
2017-11-20T23:47:58.785Z,14.87
2017-11-20T23:50:28.991Z,13.25
2017-11-20T23:52:57.207Z,19.60
2017-11-20T23:55:24.818Z,16.90
2017-11-20T23:57:53.156Z,19.25
